createdAt,value
2018-11-20T00:01:58.226Z,13.19
2018-11-20T00:04:50.771Z,13.25
2018-11-20T00:07:40.527Z,13.16
2018-11-20T00:10:33.015Z,13.17
2018-11-20T00:13:16.280Z,13.11
2018-11-20T00:16:06.982Z,13.18
2018-11-20T00:18:55.379Z,13.19
2018-11-20T00:21:39.607Z,13.21
2018-11-20T00:24:26.293Z,13.22
2018-11-20T00:27:18.788Z,13.24
2018-11-20T00:30:11.111Z,13.25
2018-11-20T00:32:59.664Z,13.34
2018-11-20T00:35:48.276Z,13.36
2018-11-20T00:38:39.326Z,13.29
2018-11-20T00:41:37.300Z,13.36
2018-11-20T00:44:39.512Z,13.39
2018-11-20T00:47:41.976Z,13.39
2018-11-20T00:50:43.774Z,13.38
2018-11-20T00:53:32.301Z,13.41
2018-11-20T00:57:06.447Z,13.28
2018-11-20T01:00:02.463Z,13.19
2018-11-20T01:02:59.053Z,13.23
2018-11-20T01:05:47.418Z,13.21
2018-11-20T01:08:33.705Z,13.16
2018-11-20T01:11:23.683Z,13.25
2018-11-20T01:14:22.069Z,13.24
2018-11-20T01:17:20.966Z,13.29
2018-11-20T01:20:11.321Z,13.28
2018-11-20T01:23:00.107Z,13.31
2018-11-20T01:25:53.411Z,13.37
2018-11-20T01:28:41.646Z,13.38
2018-11-20T01:31:25.173Z,13.41
2018-11-20T01:34:12.081Z,13.40
2018-11-20T01:37:04.849Z,13.51
2018-11-20T01:40:07.070Z,13.49
2018-11-20T01:42:59.410Z,13.40
2018-11-20T01:45:47.746Z,13.33
2018-11-20T01:48:39.823Z,13.21
2018-11-20T01:51:29.352Z,13.18
2018-11-20T01:54:30.642Z,13.14
2018-11-20T01:57:16.784Z,13.08
2018-11-20T02:00:09.243Z,13.06
2018-11-20T02:02:54.618Z,13.00
2018-11-20T02:05:44.089Z,12.94
2018-11-20T02:08:32.585Z,12.94
2018-11-20T02:11:22.477Z,12.93
2018-11-20T02:14:24.119Z,12.92
2018-11-20T02:17:40.111Z,12.90
2018-11-20T02:20:29.641Z,12.92
2018-11-20T02:23:10.521Z,12.78
2018-11-20T02:25:58.829Z,12.72
2018-11-20T02:28:40.609Z,12.71
2018-11-20T02:31:19.037Z,12.76
2018-11-20T02:34:04.878Z,12.77
2018-11-20T02:37:09.606Z,12.78
2018-11-20T02:39:58.114Z,12.81
2018-11-20T02:42:53.647Z,12.75
2018-11-20T02:45:43.131Z,12.74
2018-11-20T02:48:36.392Z,12.71
2018-11-20T02:51:24.752Z,12.64
2018-11-20T02:54:19.898Z,12.69
2018-11-20T02:57:21.510Z,12.67
2018-11-20T03:00:17.027Z,12.64
2018-11-20T03:03:18.492Z,12.67
2018-11-20T03:06:06.536Z,12.55
2018-11-20T03:08:48.694Z,12.54
2018-11-20T03:11:40.739Z,12.38
2018-11-20T03:14:48.455Z,12.38
2018-11-20T03:17:46.983Z,12.32
2018-11-20T03:20:37.435Z,12.23
2018-11-20T03:23:29.804Z,12.23
2018-11-20T03:26:26.425Z,12.17
2018-11-20T03:29:21.035Z,12.09
2018-11-20T03:32:28.916Z,12.01
2018-11-20T03:35:18.391Z,11.99
2018-11-20T03:38:13.972Z,11.91
2018-11-20T03:40:59.517Z,11.87
2018-11-20T03:43:48.997Z,11.79
2018-11-20T03:46:34.338Z,11.80
2018-11-20T03:49:26.089Z,11.69
2018-11-20T03:52:27.726Z,11.58
2018-11-20T03:55:11.631Z,11.56
2018-11-20T03:58:04.751Z,11.59
2018-11-20T04:00:56.914Z,11.63
2018-11-20T04:04:01.544Z,11.60
2018-11-20T04:06:59.926Z,11.61
2018-11-20T04:09:47.849Z,11.65
2018-11-20T04:12:33.201Z,11.71
2018-11-20T04:15:26.207Z,11.71
2018-11-20T04:18:21.670Z,11.81
2018-11-20T04:21:10.255Z,11.88
2018-11-20T04:24:12.005Z,11.89
2018-11-20T04:27:01.550Z,11.89
2018-11-20T04:30:06.385Z,11.89
2018-11-20T04:33:05.076Z,11.96
2018-11-20T04:35:54.566Z,12.07
2018-11-20T04:38:39.925Z,12.10
2018-11-20T04:41:25.753Z,12.02
2018-11-20T04:44:13.895Z,12.09
2018-11-20T04:46:58.554Z,12.04
2018-11-20T04:49:47.665Z,12.07
2018-11-20T04:52:46.743Z,12.02
2018-11-20T04:55:48.399Z,12.06
2018-11-20T04:58:31.814Z,12.00
2018-11-20T05:01:31.604Z,11.96
2018-11-20T05:04:12.602Z,11.95
2018-11-20T05:07:08.024Z,11.89
2018-11-20T05:10:09.483Z,11.83
2018-11-20T05:13:11.128Z,11.79
2018-11-20T05:16:12.950Z,11.68
2018-11-20T05:19:01.252Z,11.66
2018-11-20T05:21:56.651Z,11.61
2018-11-20T05:24:44.655Z,11.53
2018-11-20T05:27:32.736Z,11.46
2018-11-20T05:30:26.961Z,11.37
2018-11-20T05:33:19.555Z,11.38
2018-11-20T05:36:09.070Z,11.31
2018-11-20T05:39:07.451Z,11.32
2018-11-20T05:41:46.647Z,11.32
2018-11-20T05:44:38.995Z,11.38
2018-11-20T05:47:25.150Z,11.41
2018-11-20T05:50:14.225Z,11.40
2018-11-20T05:52:59.506Z,11.45
2018-11-20T05:55:52.095Z,11.45
2018-11-20T05:58:53.795Z,11.47
2018-11-20T06:01:41.986Z,11.51
2018-11-20T06:04:37.843Z,11.58
2018-11-20T06:07:29.658Z,11.63
2018-11-20T06:10:18.278Z,11.60
2018-11-20T06:13:14.568Z,11.69
2018-11-20T06:16:06.872Z,11.71
2018-11-20T06:18:59.315Z,11.70
2018-11-20T06:21:53.338Z,11.77
2018-11-20T06:24:32.914Z,11.81
2018-11-20T06:27:21.924Z,11.83
2018-11-20T06:30:11.438Z,11.84
2018-11-20T06:33:07.322Z,11.78
2018-11-20T06:36:00.835Z,11.78
2018-11-20T06:39:02.971Z,11.76
2018-11-20T06:42:06.064Z,11.73
2018-11-20T06:44:54.232Z,11.73
2018-11-20T06:47:52.566Z,11.68
2018-11-20T06:50:36.262Z,11.66
2018-11-20T06:53:24.244Z,11.63
2018-11-20T06:56:26.278Z,11.64
2018-11-20T06:59:24.618Z,11.63
2018-11-20T07:02:14.130Z,11.60
2018-11-20T07:05:03.591Z,11.54
2018-11-20T07:08:01.028Z,11.52
2018-11-20T07:10:40.687Z,11.52
2018-11-20T07:13:36.666Z,11.57
2018-11-20T07:16:51.104Z,11.58
2018-11-20T07:19:45.460Z,11.60
2018-11-20T07:22:41.572Z,11.64
2018-11-20T07:25:29.762Z,11.66
2018-11-20T07:28:30.509Z,11.69
2018-11-20T07:31:20.218Z,11.68
2018-11-20T07:34:08.243Z,11.68
2018-11-20T07:37:06.511Z,11.72
2018-11-20T07:39:56.037Z,11.73
2018-11-20T07:42:45.506Z,11.72
2018-11-20T07:45:33.646Z,11.75
2018-11-20T07:48:22.220Z,11.72
2018-11-20T07:51:17.951Z,11.74
2018-11-20T07:54:25.379Z,11.73
2018-11-20T07:57:20.578Z,11.74
2018-11-20T08:00:09.340Z,11.73
2018-11-20T08:02:59.269Z,11.75
2018-11-20T08:05:51.350Z,11.78
2018-11-20T08:08:50.169Z,11.83
2018-11-20T08:11:54.957Z,11.89
2018-11-20T08:14:53.528Z,11.85
2018-11-20T08:17:41.945Z,11.83
2018-11-20T08:20:29.670Z,11.88
2018-11-20T08:23:17.843Z,11.89
2018-11-20T08:26:19.703Z,11.98
2018-11-20T08:29:08.889Z,11.98
2018-11-20T08:31:58.372Z,12.03
2018-11-20T08:34:42.647Z,11.95
2018-11-20T08:37:30.972Z,12.16
2018-11-20T08:40:26.368Z,12.27
2018-11-20T08:43:12.935Z,12.35
2018-11-20T08:46:00.622Z,12.35
2018-11-20T08:48:47.583Z,12.67
2018-11-20T08:51:40.028Z,12.71
2018-11-20T08:54:27.944Z,13.00
2018-11-20T08:57:16.056Z,13.39
2018-11-20T09:00:09.063Z,13.72
2018-11-20T09:02:56.919Z,13.72
2018-11-20T09:05:37.118Z,13.38
2018-11-20T09:08:21.931Z,13.19
2018-11-20T09:11:23.620Z,13.01
2018-11-20T09:14:11.709Z,12.73
2018-11-20T09:17:00.776Z,12.49
2018-11-20T09:19:43.160Z,12.27
2018-11-20T09:22:44.586Z,12.01
2018-11-20T09:25:32.798Z,11.88
2018-11-20T09:28:32.465Z,11.71
2018-11-20T09:31:38.398Z,11.68
2018-11-20T09:34:30.515Z,11.72
2018-11-20T09:37:37.997Z,11.73
2018-11-20T09:40:59.957Z,11.87
2018-11-20T09:44:00.385Z,11.90
2018-11-20T09:46:48.108Z,12.04
2018-11-20T09:49:46.679Z,12.23
2018-11-20T09:52:45.219Z,12.47
2018-11-20T09:55:34.578Z,12.95
2018-11-20T09:58:23.142Z,13.39
2018-11-20T10:01:12.600Z,14.06
2018-11-20T10:04:00.518Z,15.61
2018-11-20T10:06:57.714Z,15.80
2018-11-20T10:09:47.780Z,16.23
2018-11-20T10:12:36.237Z,16.50
2018-11-20T10:15:42.408Z,16.52
2018-11-20T10:18:30.932Z,15.73
2018-11-20T10:21:22.575Z,15.58
2018-11-20T10:24:20.919Z,15.06
2018-11-20T10:27:10.503Z,14.85
2018-11-20T10:29:58.796Z,15.06
2018-11-20T10:32:44.612Z,15.75
2018-11-20T10:35:34.255Z,16.07
2018-11-20T10:38:36.904Z,16.05
2018-11-20T10:41:47.335Z,16.09
2018-11-20T10:44:52.075Z,16.10
2018-11-20T10:47:41.481Z,15.54
2018-11-20T10:50:29.661Z,15.34
2018-11-20T10:53:31.039Z,14.38
2018-11-20T10:56:23.352Z,14.33
2018-11-20T10:59:19.170Z,14.10
2018-11-20T11:02:07.663Z,14.23
2018-11-20T11:04:55.608Z,14.08
2018-11-20T11:07:43.158Z,14.03
2018-11-20T11:10:32.906Z,13.98
2018-11-20T11:13:25.270Z,13.94
2018-11-20T11:16:24.585Z,13.80
2018-11-20T11:19:23.141Z,13.61
2018-11-20T11:22:12.960Z,13.49
2018-11-20T11:25:20.653Z,13.53
2018-11-20T11:28:28.061Z,13.51
2018-11-20T11:31:26.237Z,13.39
2018-11-20T11:34:14.471Z,13.26
2018-11-20T11:37:14.008Z,13.05
2018-11-20T11:39:56.077Z,13.01
2018-11-20T11:42:51.559Z,13.27
2018-11-20T11:45:43.780Z,13.47
2018-11-20T11:48:45.810Z,13.68
2018-11-20T11:51:41.226Z,13.80
2018-11-20T11:54:36.708Z,13.92
2018-11-20T11:57:24.925Z,13.98
2018-11-20T12:00:13.132Z,14.15
2018-11-20T12:06:00.079Z,14.08
2018-11-20T12:08:41.091Z,13.72
2018-11-20T12:11:30.615Z,13.69
2018-11-20T12:14:18.401Z,13.54
2018-11-20T12:17:06.702Z,13.27
2018-11-20T12:20:05.396Z,13.25
2018-11-20T12:22:53.819Z,13.35
2018-11-20T12:25:52.370Z,13.47
2018-11-20T12:28:51.081Z,13.29
2018-11-20T12:31:32.179Z,13.54
2018-11-20T12:34:20.006Z,13.55
2018-11-20T12:37:15.324Z,13.42
2018-11-20T12:40:06.287Z,13.39
2018-11-20T12:42:59.636Z,13.45
2018-11-20T12:46:13.187Z,13.34
2018-11-20T12:49:11.522Z,13.26
2018-11-20T12:52:05.926Z,13.27
2018-11-20T12:55:05.249Z,13.46
2018-11-20T12:58:13.968Z,14.33
2018-11-20T13:01:00.994Z,15.55
2018-11-20T13:03:50.032Z,15.88
2018-11-20T13:06:38.658Z,15.71
2018-11-20T13:09:29.988Z,15.78
2018-11-20T13:12:19.511Z,16.17
2018-11-20T13:15:08.987Z,16.07
2018-11-20T13:18:13.587Z,16.15
2018-11-20T13:21:18.549Z,16.10
2018-11-20T13:24:09.562Z,15.71
2018-11-20T13:26:59.900Z,15.75
2018-11-20T13:29:48.143Z,15.91
2018-11-20T13:32:28.560Z,15.83
2018-11-20T13:35:37.023Z,16.03
2018-11-20T13:38:25.444Z,16.31
2018-11-20T13:42:00.753Z,16.57
2018-11-20T13:45:06.314Z,16.23
2018-11-20T13:47:54.557Z,16.08
2018-11-20T13:50:56.577Z,15.91
2018-11-20T13:53:48.813Z,15.78
2018-11-20T13:56:39.004Z,16.05
2018-11-20T13:59:28.013Z,16.04
2018-11-20T14:02:35.704Z,15.87
2018-11-20T14:05:19.865Z,15.73
2018-11-20T14:08:10.027Z,15.39
2018-11-20T14:11:00.450Z,15.20
2018-11-20T14:13:46.857Z,15.00
2018-11-20T14:16:35.859Z,14.64
2018-11-20T14:19:28.053Z,14.88
2018-11-20T14:22:23.267Z,14.93
2018-11-20T14:25:11.735Z,15.04
2018-11-20T14:28:04.420Z,15.00
2018-11-20T14:30:59.739Z,15.08
2018-11-20T14:33:55.042Z,14.86
2018-11-20T14:37:03.395Z,14.80
2018-11-20T14:40:11.263Z,14.62
2018-11-20T14:43:09.369Z,14.35
2018-11-20T14:46:07.873Z,14.30
2018-11-20T14:49:00.574Z,14.29
2018-11-20T14:51:56.256Z,14.30
2018-11-20T14:54:57.630Z,14.15
2018-11-20T14:57:45.887Z,14.16
2018-11-20T15:00:34.181Z,14.08
2018-11-20T15:03:22.286Z,13.93
2018-11-20T15:06:10.215Z,13.78
2018-11-20T15:09:03.423Z,13.71
2018-11-20T15:11:51.883Z,13.56
2018-11-20T15:14:40.370Z,13.55
2018-11-20T15:17:30.426Z,13.36
2018-11-20T15:20:26.894Z,13.29
2018-11-20T15:23:14.917Z,13.24
2018-11-20T15:26:05.175Z,13.20
2018-11-20T15:28:51.776Z,13.24
2018-11-20T15:31:50.473Z,13.24
2018-11-20T15:34:52.387Z,13.11
2018-11-20T15:37:37.915Z,13.09
2018-11-20T15:40:46.905Z,13.09
2018-11-20T15:43:34.835Z,13.11
2018-11-20T15:46:27.819Z,13.04
2018-11-20T15:49:26.638Z,13.01
2018-11-20T15:52:09.097Z,12.98
2018-11-20T15:55:01.240Z,13.05
2018-11-20T15:58:03.523Z,12.93
2018-11-20T16:01:11.861Z,12.87
2018-11-20T16:04:05.202Z,12.83
2018-11-20T16:06:46.791Z,12.87
2018-11-20T16:09:36.313Z,12.94
2018-11-20T16:12:24.341Z,12.90
2018-11-20T16:15:19.754Z,12.92
2018-11-20T16:18:01.746Z,12.96
2018-11-20T16:21:03.393Z,13.00
2018-11-20T16:23:58.733Z,12.96
2018-11-20T16:26:48.347Z,13.01
2018-11-20T16:29:36.407Z,13.05
2018-11-20T16:32:29.825Z,13.05
2018-11-20T16:35:31.564Z,13.07
2018-11-20T16:38:27.006Z,13.12
2018-11-20T16:41:32.261Z,13.12
2018-11-20T16:44:20.112Z,13.05
2018-11-20T16:47:09.534Z,13.02
2018-11-20T16:49:57.337Z,12.95
2018-11-20T16:53:04.966Z,12.85
2018-11-20T16:56:03.363Z,12.76
2018-11-20T16:59:01.719Z,12.72
2018-11-20T17:02:08.578Z,12.64
2018-11-20T17:04:56.670Z,12.58
2018-11-20T17:07:44.954Z,12.60
2018-11-20T17:10:40.369Z,12.60
2018-11-20T17:13:41.788Z,12.54
2018-11-20T17:16:33.807Z,12.50
2018-11-20T17:19:27.023Z,12.45
2018-11-20T17:22:16.747Z,12.46
2018-11-20T17:25:08.503Z,12.40
2018-11-20T17:27:59.716Z,12.40
2018-11-20T17:30:47.451Z,12.38
2018-11-20T17:33:39.530Z,12.36
2018-11-20T17:36:34.862Z,12.40
2018-11-20T17:39:28.518Z,12.41
2018-11-20T17:42:16.325Z,12.45
2018-11-20T17:45:18.256Z,12.41
2018-11-20T17:47:59.655Z,12.44
2018-11-20T17:50:51.822Z,12.33
2018-11-20T17:53:51.341Z,12.28
2018-11-20T17:56:52.959Z,12.23
2018-11-20T17:59:48.238Z,12.23
2018-11-20T18:02:25.790Z,12.27
2018-11-20T18:05:33.495Z,12.22
2018-11-20T18:08:45.664Z,12.26
2018-11-20T18:11:38.144Z,12.30
2018-11-20T18:14:30.773Z,12.26
2018-11-20T18:17:20.464Z,12.27
2018-11-20T18:20:05.843Z,12.31
2018-11-20T18:22:55.882Z,12.29
2018-11-20T18:26:00.832Z,12.30
2018-11-20T18:28:50.310Z,12.35
2018-11-20T18:31:38.498Z,12.35
2018-11-20T18:34:26.959Z,12.37
2018-11-20T18:37:25.152Z,12.33
2018-11-20T18:40:14.559Z,12.35
2018-11-20T18:43:06.854Z,12.35
2018-11-20T18:45:52.421Z,12.29
2018-11-20T18:48:45.041Z,12.29
2018-11-20T18:51:25.759Z,12.32
2018-11-20T18:54:10.022Z,12.34
2018-11-20T18:57:02.942Z,12.27
2018-11-20T18:59:58.905Z,12.24
2018-11-20T19:02:47.029Z,12.31
2018-11-20T19:05:36.554Z,12.33
2018-11-20T19:08:25.064Z,12.32
2018-11-20T19:11:29.745Z,12.25
2018-11-20T19:14:25.114Z,12.23
2018-11-20T19:17:19.610Z,12.23
2018-11-20T19:20:05.711Z,12.25
2018-11-20T19:23:06.853Z,12.31
2018-11-20T19:25:49.911Z,12.29
2018-11-20T19:28:38.586Z,12.35
2018-11-20T19:31:41.541Z,12.35
2018-11-20T19:34:31.124Z,12.30
2018-11-20T19:37:29.596Z,12.25
2018-11-20T19:40:20.660Z,12.33
2018-11-20T19:43:20.115Z,12.30
2018-11-20T19:46:12.252Z,12.32
2018-11-20T19:49:16.260Z,12.19
2018-11-20T19:52:13.209Z,12.20
2018-11-20T19:55:00.237Z,12.23
2018-11-20T19:58:05.179Z,12.20
2018-11-20T20:00:54.647Z,12.24
2018-11-20T20:03:53.415Z,12.22
2018-11-20T20:06:41.573Z,12.19
2018-11-20T20:09:49.898Z,12.21
2018-11-20T20:12:51.470Z,12.23
2018-11-20T20:15:39.932Z,12.27
2018-11-20T20:18:28.306Z,12.27
2018-11-20T20:21:20.902Z,12.25
2018-11-20T20:24:13.140Z,12.26
2018-11-20T20:26:57.435Z,12.20
2018-11-20T20:29:45.817Z,12.17
2018-11-20T20:32:50.429Z,12.20
2018-11-20T20:35:41.069Z,12.17
2018-11-20T20:38:32.153Z,12.13
2018-11-20T20:41:21.062Z,12.16
2018-11-20T20:44:16.696Z,12.20
2018-11-20T20:47:08.417Z,12.16
2018-11-20T20:49:55.914Z,12.12
2018-11-20T20:52:54.762Z,12.18
2018-11-20T20:55:53.199Z,12.19
2018-11-20T20:58:35.774Z,12.11
2018-11-20T21:01:24.697Z,12.16
2018-11-20T21:04:30.139Z,12.20
2018-11-20T21:07:32.057Z,12.22
2018-11-20T21:10:20.935Z,12.21
2018-11-20T21:13:15.648Z,12.13
2018-11-20T21:16:00.651Z,12.14
2018-11-20T21:19:07.560Z,12.06
2018-11-20T21:21:54.219Z,12.02
2018-11-20T21:24:53.218Z,12.10
2018-11-20T21:27:35.141Z,12.14
2018-11-20T21:30:27.203Z,12.07
2018-11-20T21:33:15.425Z,11.95
2018-11-20T21:36:03.546Z,12.01
2018-11-20T21:38:51.463Z,11.96
2018-11-20T21:41:35.248Z,11.94
2018-11-20T21:44:31.229Z,11.85
2018-11-20T21:47:10.339Z,11.90
2018-11-20T21:50:08.878Z,11.91
2018-11-20T21:52:56.826Z,11.93
2018-11-20T21:55:49.316Z,11.89
2018-11-20T21:58:37.940Z,11.76
2018-11-20T22:01:27.304Z,11.67
2018-11-20T22:04:16.373Z,11.68
2018-11-20T22:07:05.967Z,11.60
2018-11-20T22:10:06.192Z,11.69
2018-11-20T22:13:10.280Z,11.76
2018-11-20T22:16:10.849Z,11.78
2018-11-20T22:19:04.942Z,11.80
2018-11-20T22:22:00.411Z,11.79
2018-11-20T22:25:03.310Z,11.80
2018-11-20T22:27:47.744Z,11.76
2018-11-20T22:30:32.040Z,11.74
2018-11-20T22:33:44.249Z,11.78
2018-11-20T22:36:38.168Z,11.77
2018-11-20T22:39:23.368Z,11.82
2018-11-20T22:42:18.594Z,11.78
2018-11-20T22:45:12.227Z,11.79
2018-11-20T22:48:16.593Z,11.75
2018-11-20T22:50:57.766Z,11.76
2018-11-20T22:53:59.428Z,11.77
2018-11-20T22:56:54.638Z,11.78
2018-11-20T22:59:56.314Z,11.80
2018-11-20T23:02:50.857Z,11.88
2018-11-20T23:05:41.838Z,11.88
2018-11-20T23:08:12.514Z,11.85
2018-11-20T23:10:43.004Z,11.91
2018-11-20T23:13:13.472Z,11.87
2018-11-20T23:15:43.881Z,11.91
2018-11-20T23:18:14.479Z,11.96
2018-11-20T23:20:45.251Z,11.96
2018-11-20T23:23:16.167Z,12.04
2018-11-20T23:25:46.604Z,12.03
2018-11-20T23:28:17.644Z,12.06
2018-11-20T23:30:48.121Z,12.07
2018-11-20T23:33:38.785Z,12.20
2018-11-20T23:36:10.286Z,12.25
2018-11-20T23:38:40.971Z,12.33
2018-11-20T23:41:11.887Z,12.33
2018-11-20T23:43:42.949Z,12.34
2018-11-20T23:46:13.413Z,12.37
2018-11-20T23:48:43.848Z,12.38
2018-11-20T23:51:14.319Z,12.37
2018-11-20T23:53:44.728Z,12.42
2018-11-20T23:56:15.196Z,12.35
2018-11-20T23:58:46.102Z,12.23
